sensor_id;sensor_type;location;lat;lon;timestamp;P1;durP1;ratioP1;P2;durP2;ratioP2
15159;SDS011;7680;48.800;9.680;2023-02-01T00:00:57;5.57;;;5.17;;
15159;SDS011;7680;48.800;9.680;2023-02-01T00:03:30;5.00;;;4.60;;
15159;SDS011;7680;48.800;9.680;2023-02-01T00:06:05;4.97;;;4.60;;
15159;SDS011;7680;48.800;9.680;2023-02-01T00:08:39;4.90;;;4.50;;
15159;SDS011;7680;48.800;9.680;2023-02-01T00:11:12;5.13;;;4.73;;
15159;SDS011;7680;48.800;9.680;2023-02-01T00:13:45;5.00;;;4.57;;
15159;SDS011;7680;48.800;9.680;2023-02-01T00:16:20;4.93;;;4.53;;
15159;SDS011;7680;48.800;9.680;2023-02-01T00:18:56;4.90;;;4.50;;
15159;SDS011;7680;48.800;9.680;2023-02-01T00:21:33;5.10;;;4.70;;
15159;SDS011;7680;48.800;9.680;2023-02-01T00:24:06;5.23;;;4.73;;
15159;SDS011;7680;48.800;9.680;2023-02-01T00:26:42;4.77;;;4.47;;
15159;SDS011;7680;48.800;9.680;2023-02-01T00:29:18;5.07;;;4.67;;
15159;SDS011;7680;48.800;9.680;2023-02-01T00:31:52;4.50;;;4.10;;
15159;SDS011;7680;48.800;9.680;2023-02-01T00:34:25;4.73;;;4.40;;
15159;SDS011;7680;48.800;9.680;2023-02-01T00:36:59;4.90;;;4.50;;
15159;SDS011;7680;48.800;9.680;2023-02-01T00:39:32;4.60;;;4.30;;
15159;SDS011;7680;48.800;9.680;2023-02-01T00:42:05;4.93;;;4.60;;
15159;SDS011;7680;48.800;9.680;2023-02-01T00:44:39;4.40;;;4.10;;
15159;SDS011;7680;48.800;9.680;2023-02-01T00:47:12;4.57;;;4.17;;
15159;SDS011;7680;48.800;9.680;2023-02-01T00:49:45;4.50;;;4.10;;
15159;SDS011;7680;48.800;9.680;2023-02-01T00:52:19;4.53;;;4.00;;
15159;SDS011;7680;48.800;9.680;2023-02-01T00:54:52;3.90;;;3.60;;
15159;SDS011;7680;48.800;9.680;2023-02-01T00:57:25;4.40;;;4.10;;
15159;SDS011;7680;48.800;9.680;2023-02-01T00:59:58;4.20;;;3.90;;
15159;SDS011;7680;48.800;9.680;2023-02-01T01:02:31;4.40;;;4.10;;
15159;SDS011;7680;48.800;9.680;2023-02-01T01:05:05;4.97;;;4.57;;
15159;SDS011;7680;48.800;9.680;2023-02-01T01:07:39;3.70;;;3.50;;
15159;SDS011;7680;48.800;9.680;2023-02-01T01:10:13;4.37;;;4.07;;
15159;SDS011;7680;48.800;9.680;2023-02-01T01:12:46;4.10;;;3.80;;
15159;SDS011;7680;48.800;9.680;2023-02-01T01:15:19;4.23;;;3.93;;
15159;SDS011;7680;48.800;9.680;2023-02-01T01:17:52;3.60;;;3.40;;
15159;SDS011;7680;48.800;9.680;2023-02-01T01:20:25;4.27;;;3.97;;
15159;SDS011;7680;48.800;9.680;2023-02-01T01:22:59;4.17;;;3.93;;
15159;SDS011;7680;48.800;9.680;2023-02-01T01:25:36;3.97;;;3.67;;
15159;SDS011;7680;48.800;9.680;2023-02-01T01:28:10;4.20;;;4.00;;
15159;SDS011;7680;48.800;9.680;2023-02-01T01:30:43;3.70;;;3.50;;
15159;SDS011;7680;48.800;9.680;2023-02-01T01:33:16;4.80;;;4.50;;
15159;SDS011;7680;48.800;9.680;2023-02-01T01:35:49;4.27;;;3.97;;
15159;SDS011;7680;48.800;9.680;2023-02-01T01:38:24;3.90;;;3.70;;
15159;SDS011;7680;48.800;9.680;2023-02-01T01:40:57;4.17;;;3.87;;
15159;SDS011;7680;48.800;9.680;2023-02-01T01:43:44;3.63;;;3.43;;
15159;SDS011;7680;48.800;9.680;2023-02-01T01:46:21;3.70;;;3.40;;
15159;SDS011;7680;48.800;9.680;2023-02-01T01:49:00;4.03;;;3.73;;
15159;SDS011;7680;48.800;9.680;2023-02-01T01:51:38;4.40;;;4.10;;
15159;SDS011;7680;48.800;9.680;2023-02-01T01:54:18;3.87;;;3.63;;
15159;SDS011;7680;48.800;9.680;2023-02-01T01:56:57;4.13;;;3.83;;
15159;SDS011;7680;48.800;9.680;2023-02-01T01:59:34;3.97;;;3.53;;
15159;SDS011;7680;48.800;9.680;2023-02-01T02:02:10;3.43;;;3.23;;
15159;SDS011;7680;48.800;9.680;2023-02-01T02:04:43;4.03;;;3.80;;
15159;SDS011;7680;48.800;9.680;2023-02-01T02:07:20;3.50;;;3.30;;
15159;SDS011;7680;48.800;9.680;2023-02-01T02:09:57;3.73;;;3.43;;
15159;SDS011;7680;48.800;9.680;2023-02-01T02:12:31;3.60;;;3.40;;
15159;SDS011;7680;48.800;9.680;2023-02-01T02:15:05;3.40;;;3.10;;
15159;SDS011;7680;48.800;9.680;2023-02-01T02:17:41;3.90;;;3.60;;
15159;SDS011;7680;48.800;9.680;2023-02-01T02:20:30;3.53;;;3.23;;
15159;SDS011;7680;48.800;9.680;2023-02-01T02:23:42;3.90;;;3.60;;
15159;SDS011;7680;48.800;9.680;2023-02-01T02:27:08;3.73;;;3.53;;
15159;SDS011;7680;48.800;9.680;2023-02-01T02:30:02;3.80;;;3.50;;
15159;SDS011;7680;48.800;9.680;2023-02-01T02:33:39;3.40;;;3.20;;
15159;SDS011;7680;48.800;9.680;2023-02-01T02:36:22;3.73;;;3.53;;
15159;SDS011;7680;48.800;9.680;2023-02-01T02:39:06;3.60;;;3.40;;
15159;SDS011;7680;48.800;9.680;2023-02-01T02:41:48;3.90;;;3.60;;
15159;SDS011;7680;48.800;9.680;2023-02-01T02:44:45;3.70;;;3.40;;
15159;SDS011;7680;48.800;9.680;2023-02-01T02:47:42;3.73;;;3.53;;
15159;SDS011;7680;48.800;9.680;2023-02-01T02:50:25;3.87;;;3.57;;
15159;SDS011;7680;48.800;9.680;2023-02-01T02:53:25;3.60;;;3.40;;
15159;SDS011;7680;48.800;9.680;2023-02-01T02:56:22;3.80;;;3.60;;
15159;SDS011;7680;48.800;9.680;2023-02-01T02:59:16;3.80;;;3.60;;
15159;SDS011;7680;48.800;9.680;2023-02-01T03:02:11;3.83;;;3.53;;
15159;SDS011;7680;48.800;9.680;2023-02-01T03:05:03;3.67;;;3.47;;
15159;SDS011;7680;48.800;9.680;2023-02-01T03:07:49;3.83;;;3.53;;
15159;SDS011;7680;48.800;9.680;2023-02-01T03:10:36;4.00;;;3.60;;
15159;SDS011;7680;48.800;9.680;2023-02-01T03:13:18;3.80;;;3.50;;
15159;SDS011;7680;48.800;9.680;2023-02-01T03:16:02;4.20;;;3.80;;
15159;SDS011;7680;48.800;9.680;2023-02-01T03:18:46;3.93;;;3.63;;
15159;SDS011;7680;48.800;9.680;2023-02-01T03:21:24;3.60;;;3.40;;
15159;SDS011;7680;48.800;9.680;2023-02-01T03:24:03;3.50;;;3.27;;
15159;SDS011;7680;48.800;9.680;2023-02-01T03:26:42;4.23;;;3.93;;
15159;SDS011;7680;48.800;9.680;2023-02-01T03:29:21;3.80;;;3.60;;
15159;SDS011;7680;48.800;9.680;2023-02-01T03:31:57;4.33;;;4.03;;
15159;SDS011;7680;48.800;9.680;2023-02-01T03:34:31;3.83;;;3.60;;
15159;SDS011;7680;48.800;9.680;2023-02-01T03:37:04;4.73;;;4.43;;
15159;SDS011;7680;48.800;9.680;2023-02-01T03:39:44;4.13;;;3.93;;
15159;SDS011;7680;48.800;9.680;2023-02-01T03:42:21;4.33;;;4.03;;
15159;SDS011;7680;48.800;9.680;2023-02-01T03:45:01;4.10;;;3.80;;
15159;SDS011;7680;48.800;9.680;2023-02-01T03:47:42;4.27;;;3.97;;
15159;SDS011;7680;48.800;9.680;2023-02-01T03:50:20;4.00;;;3.80;;
15159;SDS011;7680;48.800;9.680;2023-02-01T03:52:56;4.17;;;3.87;;
15159;SDS011;7680;48.800;9.680;2023-02-01T03:55:35;4.40;;;4.10;;
15159;SDS011;7680;48.800;9.680;2023-02-01T03:58:11;4.50;;;4.20;;
15159;SDS011;7680;48.800;9.680;2023-02-01T04:00:50;3.80;;;3.50;;
15159;SDS011;7680;48.800;9.680;2023-02-01T04:03:26;4.70;;;4.37;;
15159;SDS011;7680;48.800;9.680;2023-02-01T04:06:00;4.63;;;4.30;;
15159;SDS011;7680;48.800;9.680;2023-02-01T04:08:33;4.30;;;4.00;;
15159;SDS011;7680;48.800;9.680;2023-02-01T04:11:07;4.43;;;4.13;;
15159;SDS011;7680;48.800;9.680;2023-02-01T04:13:40;4.37;;;4.07;;
15159;SDS011;7680;48.800;9.680;2023-02-01T04:16:13;4.00;;;3.73;;
15159;SDS011;7680;48.800;9.680;2023-02-01T04:18:47;3.67;;;3.47;;
15159;SDS011;7680;48.800;9.680;2023-02-01T04:21:20;4.50;;;4.20;;
15159;SDS011;7680;48.800;9.680;2023-02-01T04:23:53;4.17;;;3.80;;
15159;SDS011;7680;48.800;9.680;2023-02-01T04:26:27;4.10;;;3.80;;
15159;SDS011;7680;48.800;9.680;2023-02-01T04:29:00;4.33;;;4.03;;
15159;SDS011;7680;48.800;9.680;2023-02-01T04:31:33;6.13;;;5.63;;
15159;SDS011;7680;48.800;9.680;2023-02-01T04:34:07;7.23;;;6.53;;
15159;SDS011;7680;48.800;9.680;2023-02-01T04:36:40;4.30;;;3.90;;
15159;SDS011;7680;48.800;9.680;2023-02-01T04:39:17;4.07;;;3.80;;
15159;SDS011;7680;48.800;9.680;2023-02-01T04:41:51;3.83;;;3.53;;
15159;SDS011;7680;48.800;9.680;2023-02-01T04:44:24;4.10;;;3.80;;
15159;SDS011;7680;48.800;9.680;2023-02-01T04:46:58;3.80;;;3.50;;
15159;SDS011;7680;48.800;9.680;2023-02-01T04:49:31;3.97;;;3.67;;
15159;SDS011;7680;48.800;9.680;2023-02-01T04:52:04;4.50;;;4.20;;
15159;SDS011;7680;48.800;9.680;2023-02-01T04:54:38;4.17;;;3.77;;
15159;SDS011;7680;48.800;9.680;2023-02-01T04:57:12;4.10;;;3.90;;
15159;SDS011;7680;48.800;9.680;2023-02-01T04:59:46;4.27;;;3.97;;
15159;SDS011;7680;48.800;9.680;2023-02-01T05:02:19;4.10;;;3.80;;
15159;SDS011;7680;48.800;9.680;2023-02-01T05:04:52;3.60;;;3.30;;
15159;SDS011;7680;48.800;9.680;2023-02-01T05:07:28;4.00;;;3.70;;
15159;SDS011;7680;48.800;9.680;2023-02-01T05:10:01;3.93;;;3.63;;
15159;SDS011;7680;48.800;9.680;2023-02-01T05:12:36;4.20;;;3.90;;
15159;SDS011;7680;48.800;9.680;2023-02-01T05:15:27;4.30;;;4.00;;
15159;SDS011;7680;48.800;9.680;2023-02-01T05:18:00;4.23;;;3.93;;
15159;SDS011;7680;48.800;9.680;2023-02-01T05:20:33;4.00;;;3.70;;
15159;SDS011;7680;48.800;9.680;2023-02-01T05:23:07;4.40;;;4.10;;
15159;SDS011;7680;48.800;9.680;2023-02-01T05:25:41;3.80;;;3.60;;
15159;SDS011;7680;48.800;9.680;2023-02-01T05:28:15;4.50;;;4.10;;
15159;SDS011;7680;48.800;9.680;2023-02-01T05:30:48;4.13;;;3.93;;
15159;SDS011;7680;48.800;9.680;2023-02-01T05:33:21;3.90;;;3.67;;
15159;SDS011;7680;48.800;9.680;2023-02-01T05:35:55;4.00;;;3.70;;
15159;SDS011;7680;48.800;9.680;2023-02-01T05:38:28;3.83;;;3.63;;
15159;SDS011;7680;48.800;9.680;2023-02-01T05:41:01;4.20;;;3.93;;
15159;SDS011;7680;48.800;9.680;2023-02-01T05:43:35;3.80;;;3.60;;
15159;SDS011;7680;48.800;9.680;2023-02-01T05:46:08;4.20;;;3.87;;
15159;SDS011;7680;48.800;9.680;2023-02-01T05:48:44;4.23;;;3.93;;
15159;SDS011;7680;48.800;9.680;2023-02-01T05:51:17;3.70;;;3.50;;
15159;SDS011;7680;48.800;9.680;2023-02-01T05:53:50;3.70;;;3.50;;
15159;SDS011;7680;48.800;9.680;2023-02-01T05:56:23;4.30;;;4.03;;
15159;SDS011;7680;48.800;9.680;2023-02-01T05:58:58;4.00;;;3.80;;
15159;SDS011;7680;48.800;9.680;2023-02-01T06:01:30;4.37;;;3.97;;
15159;SDS011;7680;48.800;9.680;2023-02-01T06:04:03;3.70;;;3.40;;
15159;SDS011;7680;48.800;9.680;2023-02-01T06:06:37;4.20;;;3.90;;
15159;SDS011;7680;48.800;9.680;2023-02-01T06:09:10;4.07;;;3.87;;
15159;SDS011;7680;48.800;9.680;2023-02-01T06:11:43;3.97;;;3.77;;
15159;SDS011;7680;48.800;9.680;2023-02-01T06:14:17;3.60;;;3.40;;
15159;SDS011;7680;48.800;9.680;2023-02-01T06:16:50;4.17;;;3.80;;
15159;SDS011;7680;48.800;9.680;2023-02-01T06:19:24;4.03;;;3.73;;
15159;SDS011;7680;48.800;9.680;2023-02-01T06:23:11;3.80;;;3.50;;
15159;SDS011;7680;48.800;9.680;2023-02-01T06:25:44;3.80;;;3.50;;
15159;SDS011;7680;48.800;9.680;2023-02-01T06:28:17;3.47;;;3.20;;
15159;SDS011;7680;48.800;9.680;2023-02-01T06:30:51;3.90;;;3.70;;
15159;SDS011;7680;48.800;9.680;2023-02-01T06:33:24;4.03;;;3.73;;
15159;SDS011;7680;48.800;9.680;2023-02-01T06:35:58;4.00;;;3.70;;
15159;SDS011;7680;48.800;9.680;2023-02-01T06:38:32;3.63;;;3.37;;
15159;SDS011;7680;48.800;9.680;2023-02-01T06:41:06;3.47;;;3.27;;
15159;SDS011;7680;48.800;9.680;2023-02-01T06:43:39;3.63;;;3.33;;
15159;SDS011;7680;48.800;9.680;2023-02-01T06:46:14;4.17;;;3.87;;
15159;SDS011;7680;48.800;9.680;2023-02-01T06:48:47;4.10;;;3.67;;
15159;SDS011;7680;48.800;9.680;2023-02-01T06:51:22;4.17;;;3.77;;
15159;SDS011;7680;48.800;9.680;2023-02-01T06:53:57;4.07;;;3.77;;
15159;SDS011;7680;48.800;9.680;2023-02-01T06:56:30;4.07;;;3.87;;
15159;SDS011;7680;48.800;9.680;2023-02-01T06:59:03;4.50;;;3.67;;
15159;SDS011;7680;48.800;9.680;2023-02-01T07:01:38;4.17;;;3.87;;
15159;SDS011;7680;48.800;9.680;2023-02-01T07:04:12;4.00;;;3.70;;
15159;SDS011;7680;48.800;9.680;2023-02-01T07:06:45;4.33;;;4.03;;
15159;SDS011;7680;48.800;9.680;2023-02-01T07:09:18;4.03;;;3.83;;
15159;SDS011;7680;48.800;9.680;2023-02-01T07:11:51;6.70;;;6.17;;
15159;SDS011;7680;48.800;9.680;2023-02-01T07:14:24;6.03;;;5.50;;
15159;SDS011;7680;48.800;9.680;2023-02-01T07:16:59;4.53;;;4.23;;
15159;SDS011;7680;48.800;9.680;2023-02-01T07:19:32;4.10;;;3.87;;
15159;SDS011;7680;48.800;9.680;2023-02-01T07:22:05;4.00;;;3.70;;
15159;SDS011;7680;48.800;9.680;2023-02-01T07:24:38;4.10;;;3.80;;
15159;SDS011;7680;48.800;9.680;2023-02-01T07:27:11;5.20;;;4.17;;
15159;SDS011;7680;48.800;9.680;2023-02-01T07:29:44;4.20;;;3.90;;
15159;SDS011;7680;48.800;9.680;2023-02-01T07:32:18;3.80;;;3.60;;
15159;SDS011;7680;48.800;9.680;2023-02-01T07:34:51;4.43;;;4.17;;
15159;SDS011;7680;48.800;9.680;2023-02-01T07:37:24;4.03;;;3.80;;
15159;SDS011;7680;48.800;9.680;2023-02-01T07:39:58;4.90;;;4.40;;
15159;SDS011;7680;48.800;9.680;2023-02-01T07:42:31;4.40;;;4.13;;
15159;SDS011;7680;48.800;9.680;2023-02-01T07:45:04;4.83;;;4.33;;
15159;SDS011;7680;48.800;9.680;2023-02-01T07:47:53;4.33;;;3.93;;
15159;SDS011;7680;48.800;9.680;2023-02-01T07:50:26;7.17;;;3.93;;
15159;SDS011;7680;48.800;9.680;2023-02-01T07:52:59;4.20;;;3.90;;
15159;SDS011;7680;48.800;9.680;2023-02-01T07:55:32;4.93;;;4.10;;
15159;SDS011;7680;48.800;9.680;2023-02-01T07:58:06;4.60;;;3.97;;
15159;SDS011;7680;48.800;9.680;2023-02-01T08:00:39;4.77;;;4.27;;
15159;SDS011;7680;48.800;9.680;2023-02-01T08:03:31;4.63;;;4.33;;
15159;SDS011;7680;48.800;9.680;2023-02-01T08:06:04;4.80;;;4.30;;
15159;SDS011;7680;48.800;9.680;2023-02-01T08:08:38;4.67;;;4.27;;
15159;SDS011;7680;48.800;9.680;2023-02-01T08:11:11;5.63;;;4.40;;
15159;SDS011;7680;48.800;9.680;2023-02-01T08:13:45;5.43;;;4.97;;
15159;SDS011;7680;48.800;9.680;2023-02-01T08:16:19;5.17;;;4.37;;
15159;SDS011;7680;48.800;9.680;2023-02-01T08:18:54;4.40;;;4.00;;
15159;SDS011;7680;48.800;9.680;2023-02-01T08:21:27;5.30;;;4.30;;
15159;SDS011;7680;48.800;9.680;2023-02-01T08:24:08;4.57;;;4.23;;
15159;SDS011;7680;48.800;9.680;2023-02-01T08:26:42;6.47;;;4.20;;
15159;SDS011;7680;48.800;9.680;2023-02-01T08:29:15;4.47;;;4.07;;
15159;SDS011;7680;48.800;9.680;2023-02-01T08:31:48;4.53;;;4.13;;
15159;SDS011;7680;48.800;9.680;2023-02-01T08:34:23;5.37;;;4.30;;
15159;SDS011;7680;48.800;9.680;2023-02-01T08:36:56;4.77;;;4.37;;
15159;SDS011;7680;48.800;9.680;2023-02-01T08:39:30;4.77;;;4.37;;
15159;SDS011;7680;48.800;9.680;2023-02-01T08:42:03;4.40;;;4.00;;
15159;SDS011;7680;48.800;9.680;2023-02-01T08:44:54;4.33;;;3.93;;
15159;SDS011;7680;48.800;9.680;2023-02-01T08:47:27;4.50;;;4.20;;
15159;SDS011;7680;48.800;9.680;2023-02-01T08:50:02;4.57;;;4.00;;
15159;SDS011;7680;48.800;9.680;2023-02-01T08:52:36;3.70;;;3.50;;
15159;SDS011;7680;48.800;9.680;2023-02-01T08:55:09;4.83;;;4.37;;
15159;SDS011;7680;48.800;9.680;2023-02-01T08:57:43;4.90;;;4.50;;
15159;SDS011;7680;48.800;9.680;2023-02-01T09:00:16;4.77;;;4.30;;
15159;SDS011;7680;48.800;9.680;2023-02-01T09:02:50;4.60;;;4.30;;
15159;SDS011;7680;48.800;9.680;2023-02-01T09:05:24;4.50;;;4.20;;
15159;SDS011;7680;48.800;9.680;2023-02-01T09:08:17;4.00;;;3.70;;
15159;SDS011;7680;48.800;9.680;2023-02-01T09:10:51;4.63;;;4.23;;
15159;SDS011;7680;48.800;9.680;2023-02-01T09:13:24;4.87;;;4.30;;
15159;SDS011;7680;48.800;9.680;2023-02-01T09:15:57;4.83;;;4.27;;
15159;SDS011;7680;48.800;9.680;2023-02-01T09:18:31;4.63;;;4.23;;
15159;SDS011;7680;48.800;9.680;2023-02-01T09:21:05;5.00;;;4.03;;
15159;SDS011;7680;48.800;9.680;2023-02-01T09:23:39;4.33;;;3.87;;
15159;SDS011;7680;48.800;9.680;2023-02-01T09:26:12;4.43;;;3.87;;
15159;SDS011;7680;48.800;9.680;2023-02-01T09:28:50;4.97;;;3.83;;
15159;SDS011;7680;48.800;9.680;2023-02-01T09:31:23;4.87;;;4.47;;
15159;SDS011;7680;48.800;9.680;2023-02-01T09:33:56;4.97;;;4.43;;
15159;SDS011;7680;48.800;9.680;2023-02-01T09:36:31;4.83;;;4.43;;
15159;SDS011;7680;48.800;9.680;2023-02-01T09:39:04;6.27;;;4.23;;
15159;SDS011;7680;48.800;9.680;2023-02-01T09:41:40;7.23;;;4.40;;
15159;SDS011;7680;48.800;9.680;2023-02-01T09:44:29;5.80;;;4.40;;
15159;SDS011;7680;48.800;9.680;2023-02-01T09:47:22;6.80;;;3.90;;
15159;SDS011;7680;48.800;9.680;2023-02-01T09:49:59;4.87;;;4.47;;
15159;SDS011;7680;48.800;9.680;2023-02-01T09:52:40;5.80;;;4.40;;
15159;SDS011;7680;48.800;9.680;2023-02-01T09:55:18;6.13;;;4.63;;
15159;SDS011;7680;48.800;9.680;2023-02-01T09:57:58;5.33;;;4.83;;
15159;SDS011;7680;48.800;9.680;2023-02-01T10:00:36;5.30;;;4.30;;
15159;SDS011;7680;48.800;9.680;2023-02-01T10:03:12;5.67;;;4.87;;
15159;SDS011;7680;48.800;9.680;2023-02-01T10:05:50;5.50;;;4.90;;
15159;SDS011;7680;48.800;9.680;2023-02-01T10:09:13;4.70;;;4.30;;
15159;SDS011;7680;48.800;9.680;2023-02-01T10:12:10;6.07;;;4.67;;
15159;SDS011;7680;48.800;9.680;2023-02-01T10:15:15;4.97;;;4.57;;
15159;SDS011;7680;48.800;9.680;2023-02-01T10:18:21;5.30;;;4.13;;
15159;SDS011;7680;48.800;9.680;2023-02-01T10:21:19;4.57;;;3.70;;
15159;SDS011;7680;48.800;9.680;2023-02-01T10:24:27;4.93;;;4.20;;
15159;SDS011;7680;48.800;9.680;2023-02-01T10:27:13;5.60;;;4.70;;
15159;SDS011;7680;48.800;9.680;2023-02-01T10:29:51;4.77;;;4.37;;
15159;SDS011;7680;48.800;9.680;2023-02-01T10:32:29;6.80;;;4.03;;
15159;SDS011;7680;48.800;9.680;2023-02-01T10:35:08;4.87;;;4.00;;
15159;SDS011;7680;48.800;9.680;2023-02-01T10:37:47;4.43;;;4.03;;
15159;SDS011;7680;48.800;9.680;2023-02-01T10:40:21;4.67;;;3.97;;
15159;SDS011;7680;48.800;9.680;2023-02-01T10:42:58;5.47;;;4.00;;
15159;SDS011;7680;48.800;9.680;2023-02-01T10:45:34;5.40;;;3.97;;
15159;SDS011;7680;48.800;9.680;2023-02-01T10:48:07;4.53;;;3.93;;
15159;SDS011;7680;48.800;9.680;2023-02-01T10:50:46;5.47;;;4.60;;
15159;SDS011;7680;48.800;9.680;2023-02-01T10:53:28;6.13;;;4.00;;
15159;SDS011;7680;48.800;9.680;2023-02-01T10:56:10;6.70;;;4.60;;
15159;SDS011;7680;48.800;9.680;2023-02-01T10:58:45;6.37;;;4.70;;
15159;SDS011;7680;48.800;9.680;2023-02-01T11:01:20;4.80;;;4.40;;
15159;SDS011;7680;48.800;9.680;2023-02-01T11:03:57;5.03;;;4.23;;
15159;SDS011;7680;48.800;9.680;2023-02-01T11:06:33;5.20;;;4.43;;
15159;SDS011;7680;48.800;9.680;2023-02-01T11:09:10;6.57;;;4.57;;
15159;SDS011;7680;48.800;9.680;2023-02-01T11:11:58;6.93;;;4.47;;
15159;SDS011;7680;48.800;9.680;2023-02-01T11:14:34;4.00;;;3.60;;
15159;SDS011;7680;48.800;9.680;2023-02-01T11:17:20;5.50;;;4.40;;
15159;SDS011;7680;48.800;9.680;2023-02-01T11:20:00;6.80;;;4.27;;
15159;SDS011;7680;48.800;9.680;2023-02-01T11:22:36;8.60;;;4.60;;
15159;SDS011;7680;48.800;9.680;2023-02-01T11:25:09;5.27;;;4.10;;
15159;SDS011;7680;48.800;9.680;2023-02-01T11:27:48;4.43;;;4.10;;
15159;SDS011;7680;48.800;9.680;2023-02-01T11:30:28;6.00;;;4.07;;
15159;SDS011;7680;48.800;9.680;2023-02-01T11:33:07;7.57;;;4.27;;
15159;SDS011;7680;48.800;9.680;2023-02-01T11:35:47;6.57;;;4.50;;
15159;SDS011;7680;48.800;9.680;2023-02-01T11:38:31;6.23;;;3.77;;
15159;SDS011;7680;48.800;9.680;2023-02-01T11:41:17;5.30;;;4.20;;
15159;SDS011;7680;48.800;9.680;2023-02-01T11:43:57;6.93;;;3.80;;
15159;SDS011;7680;48.800;9.680;2023-02-01T11:46:34;6.03;;;3.97;;
15159;SDS011;7680;48.800;9.680;2023-02-01T11:49:19;6.57;;;3.90;;
15159;SDS011;7680;48.800;9.680;2023-02-01T11:51:58;5.90;;;4.20;;
15159;SDS011;7680;48.800;9.680;2023-02-01T11:54:47;7.57;;;4.07;;
15159;SDS011;7680;48.800;9.680;2023-02-01T11:57:39;8.47;;;4.50;;
15159;SDS011;7680;48.800;9.680;2023-02-01T12:00:32;7.23;;;4.20;;
15159;SDS011;7680;48.800;9.680;2023-02-01T12:03:39;16.03;;;5.30;;
15159;SDS011;7680;48.800;9.680;2023-02-01T12:06:37;8.83;;;4.40;;
15159;SDS011;7680;48.800;9.680;2023-02-01T12:12:19;8.57;;;5.10;;
15159;SDS011;7680;48.800;9.680;2023-02-01T12:21:22;7.47;;;5.07;;
15159;SDS011;7680;48.800;9.680;2023-02-01T12:24:15;8.17;;;4.87;;
15159;SDS011;7680;48.800;9.680;2023-02-01T12:27:08;7.47;;;4.43;;
15159;SDS011;7680;48.800;9.680;2023-02-01T12:30:19;10.00;;;5.40;;
15159;SDS011;7680;48.800;9.680;2023-02-01T12:33:15;7.93;;;4.80;;
15159;SDS011;7680;48.800;9.680;2023-02-01T12:36:03;10.10;;;5.20;;
15159;SDS011;7680;48.800;9.680;2023-02-01T12:38:51;9.70;;;5.60;;
15159;SDS011;7680;48.800;9.680;2023-02-01T12:41:37;9.70;;;4.87;;
15159;SDS011;7680;48.800;9.680;2023-02-01T12:44:31;12.10;;;9.10;;
15159;SDS011;7680;48.800;9.680;2023-02-01T12:47:14;12.60;;;7.80;;
15159;SDS011;7680;48.800;9.680;2023-02-01T12:49:54;10.33;;;5.43;;
15159;SDS011;7680;48.800;9.680;2023-02-01T12:52:37;6.90;;;4.07;;
15159;SDS011;7680;48.800;9.680;2023-02-01T12:55:16;12.40;;;5.77;;
15159;SDS011;7680;48.800;9.680;2023-02-01T12:57:55;11.60;;;4.30;;
15159;SDS011;7680;48.800;9.680;2023-02-01T13:00:36;8.03;;;4.47;;
15159;SDS011;7680;48.800;9.680;2023-02-01T13:03:15;13.23;;;4.47;;
15159;SDS011;7680;48.800;9.680;2023-02-01T13:06:01;10.27;;;4.30;;
15159;SDS011;7680;48.800;9.680;2023-02-01T13:08:43;7.20;;;3.97;;
15159;SDS011;7680;48.800;9.680;2023-02-01T13:11:22;5.90;;;3.77;;
15159;SDS011;7680;48.800;9.680;2023-02-01T13:14:01;7.17;;;4.70;;
15159;SDS011;7680;48.800;9.680;2023-02-01T13:16:40;11.50;;;5.60;;
15159;SDS011;7680;48.800;9.680;2023-02-01T13:19:17;7.97;;;4.40;;
15159;SDS011;7680;48.800;9.680;2023-02-01T13:21:55;8.53;;;4.73;;
15159;SDS011;7680;48.800;9.680;2023-02-01T13:24:36;7.93;;;4.87;;
15159;SDS011;7680;48.800;9.680;2023-02-01T13:27:14;8.67;;;4.40;;
15159;SDS011;7680;48.800;9.680;2023-02-01T13:29:51;8.70;;;4.20;;
15159;SDS011;7680;48.800;9.680;2023-02-01T13:32:33;7.20;;;4.70;;
15159;SDS011;7680;48.800;9.680;2023-02-01T13:35:57;8.57;;;4.37;;
15159;SDS011;7680;48.800;9.680;2023-02-01T13:42:11;5.63;;;4.00;;
15159;SDS011;7680;48.800;9.680;2023-02-01T13:44:49;8.23;;;4.57;;
15159;SDS011;7680;48.800;9.680;2023-02-01T13:47:26;13.50;;;9.23;;
15159;SDS011;7680;48.800;9.680;2023-02-01T13:50:03;9.73;;;5.57;;
15159;SDS011;7680;48.800;9.680;2023-02-01T13:52:50;8.97;;;4.50;;
15159;SDS011;7680;48.800;9.680;2023-02-01T13:55:28;13.73;;;9.30;;
15159;SDS011;7680;48.800;9.680;2023-02-01T13:58:17;9.57;;;5.30;;
15159;SDS011;7680;48.800;9.680;2023-02-01T14:00:53;15.73;;;6.93;;
15159;SDS011;7680;48.800;9.680;2023-02-01T14:04:44;13.23;;;8.37;;
15159;SDS011;7680;48.800;9.680;2023-02-01T14:07:22;14.07;;;7.80;;
15159;SDS011;7680;48.800;9.680;2023-02-01T14:09:55;9.50;;;5.80;;
15159;SDS011;7680;48.800;9.680;2023-02-01T14:12:45;11.20;;;5.70;;
15159;SDS011;7680;48.800;9.680;2023-02-01T14:15:21;11.87;;;6.87;;
15159;SDS011;7680;48.800;9.680;2023-02-01T14:17:57;11.17;;;6.50;;
15159;SDS011;7680;48.800;9.680;2023-02-01T14:23:16;9.97;;;5.57;;
15159;SDS011;7680;48.800;9.680;2023-02-01T14:26:07;8.87;;;4.87;;
15159;SDS011;7680;48.800;9.680;2023-02-01T14:28:53;8.43;;;4.27;;
15159;SDS011;7680;48.800;9.680;2023-02-01T14:31:34;10.17;;;4.93;;
15159;SDS011;7680;48.800;9.680;2023-02-01T14:34:25;8.37;;;4.80;;
15159;SDS011;7680;48.800;9.680;2023-02-01T14:37:08;11.20;;;6.67;;
15159;SDS011;7680;48.800;9.680;2023-02-01T14:39:50;12.40;;;5.37;;
15159;SDS011;7680;48.800;9.680;2023-02-01T14:42:29;9.43;;;4.70;;
15159;SDS011;7680;48.800;9.680;2023-02-01T14:48:42;8.37;;;5.07;;
15159;SDS011;7680;48.800;9.680;2023-02-01T14:51:18;8.73;;;4.43;;
15159;SDS011;7680;48.800;9.680;2023-02-01T14:53:54;11.60;;;6.03;;
15159;SDS011;7680;48.800;9.680;2023-02-01T14:56:27;12.03;;;7.10;;
15159;SDS011;7680;48.800;9.680;2023-02-01T14:59:06;13.07;;;7.63;;
15159;SDS011;7680;48.800;9.680;2023-02-01T15:01:46;14.57;;;7.97;;
15159;SDS011;7680;48.800;9.680;2023-02-01T15:04:25;11.13;;;6.60;;
15159;SDS011;7680;48.800;9.680;2023-02-01T15:07:04;11.27;;;7.00;;
15159;SDS011;7680;48.800;9.680;2023-02-01T15:09:44;10.10;;;6.47;;
15159;SDS011;7680;48.800;9.680;2023-02-01T15:12:22;9.53;;;6.00;;
15159;SDS011;7680;48.800;9.680;2023-02-01T15:15:10;10.43;;;5.80;;
15159;SDS011;7680;48.800;9.680;2023-02-01T15:17:50;9.47;;;5.67;;
15159;SDS011;7680;48.800;9.680;2023-02-01T15:20:26;8.63;;;5.17;;
15159;SDS011;7680;48.800;9.680;2023-02-01T15:23:02;7.57;;;4.00;;
15159;SDS011;7680;48.800;9.680;2023-02-01T15:25:38;9.80;;;4.93;;
15159;SDS011;7680;48.800;9.680;2023-02-01T15:28:12;8.17;;;4.50;;
15159;SDS011;7680;48.800;9.680;2023-02-01T15:30:54;9.90;;;4.50;;
15159;SDS011;7680;48.800;9.680;2023-02-01T15:33:30;10.17;;;4.87;;
15159;SDS011;7680;48.800;9.680;2023-02-01T15:36:08;9.00;;;4.63;;
15159;SDS011;7680;48.800;9.680;2023-02-01T15:38:44;8.63;;;4.47;;
15159;SDS011;7680;48.800;9.680;2023-02-01T15:41:19;9.07;;;4.10;;
15159;SDS011;7680;48.800;9.680;2023-02-01T15:44:02;9.23;;;5.57;;
15159;SDS011;7680;48.800;9.680;2023-02-01T15:46:39;8.93;;;5.00;;
15159;SDS011;7680;48.800;9.680;2023-02-01T15:49:19;10.70;;;5.23;;
15159;SDS011;7680;48.800;9.680;2023-02-01T15:51:58;9.57;;;4.57;;
15159;SDS011;7680;48.800;9.680;2023-02-01T15:54:36;11.03;;;4.97;;
15159;SDS011;7680;48.800;9.680;2023-02-01T15:57:20;10.63;;;4.70;;
15159;SDS011;7680;48.800;9.680;2023-02-01T16:00:03;7.97;;;3.90;;
15159;SDS011;7680;48.800;9.680;2023-02-01T16:02:41;5.00;;;3.83;;
15159;SDS011;7680;48.800;9.680;2023-02-01T16:05:27;8.60;;;4.63;;
15159;SDS011;7680;48.800;9.680;2023-02-01T16:08:09;10.20;;;4.30;;
15159;SDS011;7680;48.800;9.680;2023-02-01T16:10:47;8.20;;;4.60;;
15159;SDS011;7680;48.800;9.680;2023-02-01T16:13:23;8.70;;;4.07;;
15159;SDS011;7680;48.800;9.680;2023-02-01T16:15:56;6.93;;;3.80;;
15159;SDS011;7680;48.800;9.680;2023-02-01T16:18:30;9.10;;;4.60;;
15159;SDS011;7680;48.800;9.680;2023-02-01T16:21:03;7.67;;;4.03;;
15159;SDS011;7680;48.800;9.680;2023-02-01T16:23:36;9.87;;;4.13;;
15159;SDS011;7680;48.800;9.680;2023-02-01T16:26:10;9.03;;;5.17;;
15159;SDS011;7680;48.800;9.680;2023-02-01T16:28:44;9.47;;;5.80;;
15159;SDS011;7680;48.800;9.680;2023-02-01T16:31:18;9.77;;;6.40;;